createdAt,value
2019-01-17T00:00:04.936Z,95727.34
2019-01-17T00:02:54.881Z,95722.44
2019-01-17T00:05:44.424Z,95721.27
2019-01-17T00:08:31.503Z,95722.91
2019-01-17T00:11:15.068Z,95721.84
2019-01-17T00:14:02.603Z,95718.63
2019-01-17T00:16:51.761Z,95713.64
2019-01-17T00:19:54.920Z,95712.23
2019-01-17T00:22:52.419Z,95714.11
2019-01-17T00:25:41.379Z,95716.23
2019-01-17T00:28:47.121Z,95717.53
2019-01-17T00:31:26.666Z,95716.72
2019-01-17T00:34:17.472Z,95721.04
2019-01-17T00:36:58.236Z,95714.48
2019-01-17T00:39:47.340Z,95727.84
2019-01-17T00:42:41.212Z,95724.69
2019-01-17T00:45:32.077Z,95725.72
2019-01-17T00:48:19.932Z,95721.16
2019-01-17T00:51:13.866Z,95721.71
2019-01-17T00:54:00.099Z,95722.19
2019-01-17T00:56:49.518Z,95728.54
2019-01-17T00:59:28.324Z,95736.43
2019-01-17T01:02:17.779Z,95734.75
2019-01-17T01:05:20.737Z,95747.27
2019-01-17T01:08:09.799Z,95739.50
2019-01-17T01:11:13.033Z,95739.22
2019-01-17T01:14:09.742Z,95735.84
2019-01-17T01:17:10.908Z,95739.06
2019-01-17T01:20:00.449Z,95750.30
2019-01-17T01:22:43.073Z,95742.83
2019-01-17T01:25:32.668Z,95754.80
2019-01-17T01:28:24.809Z,95758.42
2019-01-17T01:31:05.783Z,95752.77
2019-01-17T01:34:09.090Z,95758.06
2019-01-17T01:36:54.450Z,95758.45
2019-01-17T01:39:51.278Z,95758.72
2019-01-17T01:42:40.577Z,95764.02
2019-01-17T01:45:29.480Z,95761.55
2019-01-17T01:48:19.009Z,95766.11
2019-01-17T01:51:11.414Z,95764.67
2019-01-17T01:53:43.341Z,95764.38
2019-01-17T01:56:15.252Z,95753.38
2019-01-17T01:58:47.021Z,95750.06
2019-01-17T02:01:18.984Z,95749.13
2019-01-17T02:03:50.706Z,95740.22
2019-01-17T02:06:22.565Z,95742.34
2019-01-17T02:08:54.475Z,95743.61
2019-01-17T02:11:26.405Z,95742.72
2019-01-17T02:13:58.860Z,95741.96
2019-01-17T02:16:30.688Z,95742.52
2019-01-17T02:19:02.561Z,95743.97
2019-01-17T02:21:34.586Z,95734.53
2019-01-17T02:24:06.653Z,95745.69
2019-01-17T02:26:39.544Z,95737.07
2019-01-17T02:29:11.374Z,95742.89
2019-01-17T02:31:43.151Z,95743.44
2019-01-17T02:34:14.865Z,95743.20
2019-01-17T02:36:46.571Z,95740.40
2019-01-17T02:39:18.431Z,95739.73
2019-01-17T02:41:50.288Z,95737.54
2019-01-17T02:44:22.001Z,95736.70
2019-01-17T02:46:53.777Z,95729.82
2019-01-17T02:49:25.498Z,95732.08
2019-01-17T02:51:57.525Z,95730.00
2019-01-17T02:54:35.612Z,95727.84
2019-01-17T02:57:02.713Z,95728.70
2019-01-17T02:59:34.460Z,95719.13
2019-01-17T03:02:06.378Z,95721.47
2019-01-17T03:04:38.222Z,95717.83
2019-01-17T03:07:10.173Z,95715.97
2019-01-17T03:09:41.959Z,95718.09
2019-01-17T03:12:13.810Z,95720.22
2019-01-17T03:14:45.587Z,95708.26
2019-01-17T03:17:18.258Z,95699.42
2019-01-17T03:19:50.016Z,95687.12
2019-01-17T03:22:21.710Z,95689.37
2019-01-17T03:24:53.494Z,95686.47
2019-01-17T03:27:25.508Z,95690.92
2019-01-17T03:29:57.656Z,95685.86
2019-01-17T03:32:29.843Z,95691.24
2019-01-17T03:35:01.659Z,95693.53
2019-01-17T03:37:33.453Z,95692.36
2019-01-17T03:40:06.404Z,95690.84
2019-01-17T03:42:38.282Z,95690.97
2019-01-17T03:45:11.864Z,95687.33
2019-01-17T03:47:43.808Z,95689.93
2019-01-17T03:50:16.685Z,95695.30
2019-01-17T03:52:48.634Z,95688.12
2019-01-17T03:55:22.789Z,95691.33
2019-01-17T03:57:54.719Z,95688.38
2019-01-17T04:00:26.650Z,95690.23
2019-01-17T04:02:58.570Z,95682.61
2019-01-17T04:05:30.420Z,95679.14
2019-01-17T04:08:02.172Z,95676.02
2019-01-17T04:10:34.007Z,95671.02
2019-01-17T04:13:05.898Z,95668.12
2019-01-17T04:15:37.816Z,95669.05
2019-01-17T04:18:10.508Z,95663.85
2019-01-17T04:20:42.360Z,95659.99
2019-01-17T04:23:14.317Z,95657.80
2019-01-17T04:25:46.447Z,95661.05
2019-01-17T04:28:18.270Z,95665.11
2019-01-17T04:30:50.113Z,95660.16
2019-01-17T04:33:22.227Z,95659.61
2019-01-17T04:35:54.067Z,95654.61
2019-01-17T04:38:25.895Z,95660.80
2019-01-17T04:40:57.809Z,95655.51
2019-01-17T04:43:29.988Z,95654.27
2019-01-17T04:46:01.849Z,95658.61
2019-01-17T04:48:33.812Z,95664.98
2019-01-17T04:51:05.746Z,95663.38
2019-01-17T04:53:40.647Z,95660.30
2019-01-17T04:56:12.579Z,95655.06
2019-01-17T04:58:46.535Z,95652.45
2019-01-17T05:01:19.410Z,95653.68
2019-01-17T05:03:51.345Z,95638.73
2019-01-17T05:06:23.313Z,95653.93
2019-01-17T05:08:55.397Z,95649.84
2019-01-17T05:11:27.311Z,95653.41
2019-01-17T05:13:59.109Z,95652.65
2019-01-17T05:16:31.193Z,95658.41
2019-01-17T05:19:03.282Z,95647.70
2019-01-17T05:21:35.059Z,95651.47
2019-01-17T05:24:07.024Z,95646.13
2019-01-17T05:26:39.136Z,95640.59
2019-01-17T05:29:10.979Z,95640.20
2019-01-17T05:31:42.820Z,95629.70
2019-01-17T05:34:14.956Z,95629.73
2019-01-17T05:36:47.137Z,95627.47
2019-01-17T05:39:19.063Z,95624.11
2019-01-17T05:41:51.087Z,95627.84
2019-01-17T05:44:22.998Z,95635.55
2019-01-17T05:46:54.760Z,95631.23
2019-01-17T05:49:26.591Z,95630.16
2019-01-17T05:51:58.735Z,95618.78
2019-01-17T05:54:30.514Z,95624.27
2019-01-17T05:57:02.351Z,95623.20
2019-01-17T05:59:34.383Z,95615.36
2019-01-17T06:02:06.290Z,95613.13
2019-01-17T06:04:38.236Z,95611.20
2019-01-17T06:07:10.185Z,95610.29
2019-01-17T06:09:41.941Z,95606.52
2019-01-17T06:12:13.778Z,95605.08
2019-01-17T06:14:45.670Z,95589.22
2019-01-17T06:17:17.510Z,95589.20
2019-01-17T06:19:49.431Z,95594.89
2019-01-17T06:22:21.631Z,95587.09
2019-01-17T06:24:53.490Z,95601.00
2019-01-17T06:27:25.560Z,95582.54
2019-01-17T06:29:57.395Z,95575.19
2019-01-17T06:32:30.274Z,95576.73
2019-01-17T06:35:02.649Z,95571.19
2019-01-17T06:37:35.323Z,95567.02
2019-01-17T06:40:13.035Z,95570.08
2019-01-17T06:42:45.276Z,95563.70
2019-01-17T06:45:17.178Z,95559.17
2019-01-17T06:47:49.158Z,95560.39
2019-01-17T06:50:21.054Z,95558.44
2019-01-17T06:52:53.221Z,95550.84
2019-01-17T06:55:25.063Z,95546.81
2019-01-17T06:57:56.797Z,95545.48
2019-01-17T07:00:29.062Z,95547.17
2019-01-17T07:03:01.305Z,95535.16
2019-01-17T07:05:33.049Z,95532.93
2019-01-17T07:08:05.031Z,95535.98
2019-01-17T07:10:36.932Z,95537.48
2019-01-17T07:13:09.324Z,95540.91
2019-01-17T07:15:41.340Z,95535.89
2019-01-17T07:18:13.250Z,95537.88
2019-01-17T07:20:45.421Z,95545.84
2019-01-17T07:23:17.559Z,95549.67
2019-01-17T07:25:49.517Z,95535.31
2019-01-17T07:28:21.606Z,95534.31
2019-01-17T07:30:53.499Z,95530.88
2019-01-17T07:33:25.443Z,95543.77
2019-01-17T07:35:57.373Z,95530.88
2019-01-17T07:38:29.295Z,95540.69
2019-01-17T07:41:01.227Z,95526.81
2019-01-17T07:43:33.196Z,95525.52
2019-01-17T07:46:06.224Z,95538.22
2019-01-17T07:48:38.191Z,95543.78
2019-01-17T07:51:10.554Z,95538.37
2019-01-17T07:53:42.392Z,95543.77
2019-01-17T07:56:14.324Z,95536.38
2019-01-17T07:58:46.274Z,95535.90
2019-01-17T08:01:18.512Z,95528.02
2019-01-17T08:03:50.348Z,95533.23
2019-01-17T08:06:22.493Z,95536.02
2019-01-17T08:08:54.409Z,95538.84
2019-01-17T08:11:26.268Z,95546.81
2019-01-17T08:13:58.181Z,95549.59
2019-01-17T08:16:30.091Z,95545.69
2019-01-17T08:19:02.002Z,95549.45
2019-01-17T08:21:33.824Z,95556.13
2019-01-17T08:24:05.953Z,95548.94
2019-01-17T08:26:37.935Z,95547.01
2019-01-17T08:29:09.857Z,95551.93
2019-01-17T08:31:41.774Z,95554.88
2019-01-17T08:34:13.728Z,95551.27
2019-01-17T08:36:45.697Z,95548.03
2019-01-17T08:39:17.507Z,95557.44
2019-01-17T08:41:49.346Z,95557.59
2019-01-17T08:44:21.462Z,95553.85
2019-01-17T08:46:53.358Z,95554.20
2019-01-17T08:49:25.293Z,95554.83
2019-01-17T08:51:57.220Z,95567.58
2019-01-17T08:54:29.353Z,95556.19
2019-01-17T08:57:01.363Z,95557.48
2019-01-17T08:59:33.142Z,95552.91
2019-01-17T09:02:05.242Z,95560.11
2019-01-17T09:04:37.150Z,95556.52
2019-01-17T09:07:09.327Z,95554.88
2019-01-17T09:09:41.584Z,95560.57
2019-01-17T09:12:13.411Z,95565.98
2019-01-17T09:14:45.315Z,95568.59
2019-01-17T09:17:17.226Z,95563.20
2019-01-17T09:19:48.995Z,95560.44
2019-01-17T09:22:20.833Z,95563.71
2019-01-17T09:24:52.670Z,95568.59
2019-01-17T09:27:24.553Z,95565.36
2019-01-17T09:29:56.422Z,95567.92
2019-01-17T09:32:28.347Z,95561.73
2019-01-17T09:35:00.239Z,95570.23
2019-01-17T09:37:32.072Z,95568.31
2019-01-17T09:40:04.093Z,95573.47
2019-01-17T09:42:35.868Z,95580.34
2019-01-17T09:45:08.533Z,95574.84
2019-01-17T09:47:40.512Z,95573.58
2019-01-17T09:50:22.405Z,95575.18
2019-01-17T09:52:54.427Z,95576.33
2019-01-17T09:55:26.523Z,95578.80
2019-01-17T09:57:58.347Z,95569.00
2019-01-17T10:00:32.211Z,95567.21
2019-01-17T10:03:04.716Z,95567.89
2019-01-17T10:05:36.891Z,95562.19
2019-01-17T10:08:10.050Z,95566.09
2019-01-17T10:10:41.964Z,95561.55
2019-01-17T10:13:13.794Z,95559.62
2019-01-17T10:15:58.255Z,95565.17
2019-01-17T10:19:35.464Z,95547.20
2019-01-17T10:23:01.272Z,95558.27
2019-01-17T10:26:22.903Z,95554.10
2019-01-17T10:29:51.042Z,95555.26
2019-01-17T10:32:59.225Z,95559.81
2019-01-17T10:35:50.439Z,95548.55
2019-01-17T10:39:08.025Z,95556.08
2019-01-17T10:42:31.898Z,95570.09
2019-01-17T10:45:59.459Z,95565.55
2019-01-17T10:49:55.448Z,95548.25
2019-01-17T10:53:18.506Z,95548.88
2019-01-17T10:56:58.186Z,95534.86
2019-01-17T11:00:13.353Z,95539.78
2019-01-17T11:03:39.099Z,95533.71
2019-01-17T11:06:56.417Z,95543.03
2019-01-17T11:10:13.317Z,95533.89
2019-01-17T11:13:47.898Z,95522.63
2019-01-17T11:17:21.516Z,95516.63
2019-01-17T11:20:40.890Z,95528.34
2019-01-17T11:23:58.263Z,95517.91
2019-01-17T11:27:26.055Z,95528.38
2019-01-17T11:30:33.485Z,95526.40
2019-01-17T11:34:23.644Z,95530.64
2019-01-17T11:37:46.916Z,95526.55
2019-01-17T11:41:03.132Z,95532.55
2019-01-17T11:44:22.260Z,95528.83
2019-01-17T11:47:46.249Z,95525.36
2019-01-17T11:51:07.963Z,95528.64
2019-01-17T11:54:11.821Z,95539.22
2019-01-17T11:57:32.317Z,95538.06
2019-01-17T12:01:12.281Z,95533.34
2019-01-17T12:04:30.492Z,95532.18
2019-01-17T12:07:09.749Z,95528.60
2019-01-17T12:09:41.582Z,95538.70
2019-01-17T12:12:16.402Z,95539.52
2019-01-17T12:14:48.491Z,95547.01
2019-01-17T12:17:20.315Z,95550.50
2019-01-17T12:19:52.147Z,95547.69
2019-01-17T12:22:24.818Z,95573.53
2019-01-17T12:24:56.719Z,95576.38
2019-01-17T12:27:28.563Z,95585.55
2019-01-17T12:30:00.586Z,95577.79
2019-01-17T12:32:32.340Z,95574.86
2019-01-17T12:35:04.535Z,95574.98
2019-01-17T12:37:36.400Z,95576.25
2019-01-17T12:40:10.959Z,95576.94
2019-01-17T12:42:42.853Z,95571.08
2019-01-17T12:45:15.071Z,95584.75
2019-01-17T12:47:46.918Z,95580.00
2019-01-17T12:50:20.388Z,95578.02
2019-01-17T12:52:52.152Z,95578.28
2019-01-17T12:55:24.172Z,95576.92
2019-01-17T12:57:56.484Z,95572.91
2019-01-17T13:00:28.771Z,95577.32
2019-01-17T13:03:00.823Z,95563.81
2019-01-17T13:05:32.823Z,95553.64
2019-01-17T13:08:04.834Z,95546.62
2019-01-17T13:10:36.836Z,95544.68
2019-01-17T13:13:08.675Z,95547.38
2019-01-17T13:15:40.600Z,95550.25
2019-01-17T13:18:12.357Z,95548.33
2019-01-17T13:20:44.619Z,95549.84
2019-01-17T13:23:16.536Z,95542.41
2019-01-17T13:25:48.556Z,95539.44
2019-01-17T13:28:20.750Z,95535.20
2019-01-17T13:30:52.614Z,95534.92
2019-01-17T13:33:24.520Z,95536.52
2019-01-17T13:35:56.291Z,95551.36
2019-01-17T13:38:28.385Z,95536.73
2019-01-17T13:41:00.567Z,95530.89
2019-01-17T13:43:32.488Z,95529.17
2019-01-17T13:46:04.407Z,95533.71
2019-01-17T13:48:36.391Z,95540.98
2019-01-17T13:51:08.399Z,95536.66
2019-01-17T13:53:40.405Z,95533.69
2019-01-17T13:56:12.325Z,95533.08
2019-01-17T13:58:44.234Z,95540.55
2019-01-17T14:01:16.076Z,95540.81
2019-01-17T14:03:47.920Z,95542.83
2019-01-17T14:06:19.833Z,95542.89
2019-01-17T14:08:51.597Z,95537.66
2019-01-17T14:11:23.463Z,95542.56
2019-01-17T14:13:55.427Z,95541.31
2019-01-17T14:16:27.448Z,95539.52
2019-01-17T14:18:59.283Z,95534.69
2019-01-17T14:21:31.126Z,95515.08
2019-01-17T14:24:02.953Z,95520.17
2019-01-17T14:26:34.840Z,95525.09
2019-01-17T14:29:06.755Z,95526.78
2019-01-17T14:31:38.601Z,95530.83
2019-01-17T14:34:10.435Z,95527.03
2019-01-17T14:36:42.364Z,95530.95
2019-01-17T14:39:14.201Z,95522.33
2019-01-17T14:41:46.055Z,95518.08
2019-01-17T14:44:17.820Z,95527.00
2019-01-17T14:46:49.742Z,95520.45
2019-01-17T14:49:21.593Z,95518.09
2019-01-17T14:51:53.512Z,95531.75
2019-01-17T14:54:25.647Z,95535.17
2019-01-17T14:56:57.496Z,95541.50
2019-01-17T14:59:29.420Z,95559.70
2019-01-17T15:02:02.244Z,95569.83
2019-01-17T15:04:34.151Z,95571.50
2019-01-17T15:07:06.058Z,95568.98
2019-01-17T15:09:37.908Z,95580.94
2019-01-17T15:12:10.159Z,95570.83
2019-01-17T15:14:41.994Z,95569.34
2019-01-17T15:17:13.835Z,95581.84
2019-01-17T15:19:45.765Z,95579.59
2019-01-17T15:22:17.619Z,95584.65
2019-01-17T15:24:49.382Z,95587.76
2019-01-17T15:27:27.158Z,95602.15
2019-01-17T15:29:54.747Z,95605.97
2019-01-17T15:32:26.677Z,95601.23
2019-01-17T15:34:58.602Z,95602.63
2019-01-17T15:37:30.453Z,95599.45
2019-01-17T15:40:02.364Z,95603.00
2019-01-17T15:42:34.493Z,95610.11
2019-01-17T15:45:07.509Z,95624.72
2019-01-17T15:47:39.441Z,95633.19
2019-01-17T15:50:11.874Z,95635.56
2019-01-17T15:52:43.789Z,95641.84
2019-01-17T15:55:15.966Z,95639.89
2019-01-17T15:57:47.906Z,95638.48
2019-01-17T16:00:28.832Z,95645.28
2019-01-17T16:03:00.959Z,95655.51
2019-01-17T16:05:32.869Z,95660.09
2019-01-17T16:08:04.727Z,95656.02
2019-01-17T16:10:36.607Z,95669.83
2019-01-17T16:13:08.405Z,95679.04
2019-01-17T16:15:40.307Z,95668.48
2019-01-17T16:18:12.109Z,95683.38
2019-01-17T16:20:43.953Z,95666.40
2019-01-17T16:23:15.885Z,95672.52
2019-01-17T16:25:47.987Z,95671.52
2019-01-17T16:28:20.076Z,95670.40
2019-01-17T16:30:51.975Z,95675.37
2019-01-17T16:33:23.904Z,95677.47
2019-01-17T16:35:56.031Z,95674.14
2019-01-17T16:38:28.210Z,95681.59
2019-01-17T16:40:59.971Z,95674.37
2019-01-17T16:43:31.876Z,95667.52
2019-01-17T16:46:03.802Z,95679.03
2019-01-17T16:48:35.647Z,95674.04
2019-01-17T16:51:07.572Z,95672.91
2019-01-17T16:53:39.367Z,95672.49
2019-01-17T16:56:11.211Z,95673.25
2019-01-17T16:58:43.066Z,95663.66
2019-01-17T17:01:14.825Z,95675.09
2019-01-17T17:03:46.610Z,95668.77
2019-01-17T17:06:18.610Z,95679.89
2019-01-17T17:08:50.461Z,95678.59
2019-01-17T17:11:22.230Z,95674.52
2019-01-17T17:13:54.092Z,95681.06
2019-01-17T17:16:26.211Z,95671.58
2019-01-17T17:18:58.376Z,95681.20
2019-01-17T17:21:30.300Z,95677.02
2019-01-17T17:24:02.318Z,95682.84
2019-01-17T17:26:34.374Z,95685.06
2019-01-17T17:29:06.464Z,95684.48
2019-01-17T17:31:38.597Z,95692.02
2019-01-17T17:34:10.571Z,95696.41
2019-01-17T17:36:42.403Z,95700.59
2019-01-17T17:39:14.440Z,95698.36
2019-01-17T17:41:46.652Z,95705.20
2019-01-17T17:44:18.796Z,95714.04
2019-01-17T17:46:50.950Z,95712.44
2019-01-17T17:49:22.860Z,95726.71
2019-01-17T17:51:54.963Z,95752.14
2019-01-17T17:54:26.738Z,95741.44
2019-01-17T17:56:58.650Z,95754.72
2019-01-17T17:59:30.426Z,95759.80
2019-01-17T18:02:05.856Z,95778.42
2019-01-17T18:04:37.890Z,95780.48
2019-01-17T18:07:09.897Z,95781.59
2019-01-17T18:09:41.928Z,95778.58
2019-01-17T18:12:13.710Z,95795.60
2019-01-17T18:14:45.722Z,95788.61
2019-01-17T18:17:17.806Z,95789.69
2019-01-17T18:19:50.097Z,95797.22
2019-01-17T18:22:22.112Z,95806.98
2019-01-17T18:24:53.956Z,95804.92
2019-01-17T18:27:26.116Z,95809.80
2019-01-17T18:29:58.065Z,95820.09
2019-01-17T18:32:30.047Z,95824.87
2019-01-17T18:35:01.995Z,95837.80
2019-01-17T18:37:34.095Z,95849.73
2019-01-17T18:40:08.930Z,95858.19
2019-01-17T18:42:40.840Z,95860.98
2019-01-17T18:45:15.950Z,95867.34
2019-01-17T18:47:48.139Z,95870.42
2019-01-17T18:50:23.803Z,95865.38
2019-01-17T18:52:55.714Z,95864.05
2019-01-17T18:55:27.964Z,95874.14
2019-01-17T18:58:00.160Z,95874.80
2019-01-17T19:00:32.864Z,95882.58
2019-01-17T19:03:04.919Z,95894.73
2019-01-17T19:05:36.875Z,95897.83
2019-01-17T19:08:09.986Z,95902.22
2019-01-17T19:10:42.356Z,95910.44
2019-01-17T19:13:14.375Z,95912.34
2019-01-17T19:15:46.355Z,95911.84
2019-01-17T19:18:18.806Z,95915.56
2019-01-17T19:20:50.744Z,95921.95
2019-01-17T19:23:22.784Z,95926.14
2019-01-17T19:25:54.871Z,95927.86
2019-01-17T19:28:26.746Z,95926.88
2019-01-17T19:30:58.666Z,95931.48
2019-01-17T19:33:30.721Z,95931.52
2019-01-17T19:36:02.753Z,95938.52
2019-01-17T19:38:34.726Z,95941.97
2019-01-17T19:41:07.037Z,95941.88
2019-01-17T19:43:39.127Z,95939.52
2019-01-17T19:46:11.166Z,95936.53
2019-01-17T19:48:43.369Z,95932.33
2019-01-17T19:51:15.292Z,95929.93
2019-01-17T19:53:48.202Z,95930.16
2019-01-17T19:56:20.210Z,95940.58
2019-01-17T19:58:52.185Z,95946.66
2019-01-17T20:01:25.396Z,95945.03
2019-01-17T20:03:57.322Z,95956.62
2019-01-17T20:06:29.163Z,95954.58
2019-01-17T20:09:01.104Z,95959.41
2019-01-17T20:11:34.376Z,95958.62
2019-01-17T20:14:06.393Z,95965.16
2019-01-17T20:16:38.244Z,95972.62
2019-01-17T20:19:10.091Z,95983.55
2019-01-17T20:21:41.913Z,95972.73
2019-01-17T20:24:14.835Z,95977.88
2019-01-17T20:26:46.734Z,95980.70
2019-01-17T20:29:19.116Z,95979.02
2019-01-17T20:31:51.207Z,95979.84
2019-01-17T20:34:23.074Z,95991.66
2019-01-17T20:36:54.989Z,95993.08
2019-01-17T20:39:26.834Z,95997.86
2019-01-17T20:41:58.651Z,96001.98
2019-01-17T20:44:30.581Z,96005.88
2019-01-17T20:47:02.481Z,96014.11
2019-01-17T20:49:34.389Z,96016.97
2019-01-17T20:52:06.238Z,96026.84
2019-01-17T20:54:38.094Z,96028.41
2019-01-17T20:57:11.056Z,96027.19
2019-01-17T20:59:42.918Z,96027.38
2019-01-17T21:02:20.693Z,96036.13
2019-01-17T21:04:53.815Z,96033.66
2019-01-17T21:07:25.892Z,96042.73
2019-01-17T21:09:57.653Z,96055.48
2019-01-17T21:12:29.719Z,96047.41
2019-01-17T21:15:01.876Z,96049.85
2019-01-17T21:17:33.833Z,96056.48
2019-01-17T21:20:06.722Z,96027.88
2019-01-17T21:22:39.628Z,96060.24
2019-01-17T21:25:15.216Z,96062.98
2019-01-17T21:27:47.115Z,96062.42
2019-01-17T21:30:23.679Z,96063.94
2019-01-17T21:32:55.493Z,96058.88
2019-01-17T21:35:27.406Z,96057.47
2019-01-17T21:37:59.645Z,96054.41
2019-01-17T21:40:31.513Z,96052.17
2019-01-17T21:43:03.516Z,96052.78
2019-01-17T21:45:35.364Z,96057.84
2019-01-17T21:48:07.251Z,96061.95
2019-01-17T21:50:39.431Z,96070.09
2019-01-17T21:53:11.614Z,96079.75
2019-01-17T21:55:43.691Z,96080.68
2019-01-17T21:58:15.565Z,96084.34
2019-01-17T22:00:47.343Z,96078.45
2019-01-17T22:03:19.188Z,96081.98
2019-01-17T22:05:51.024Z,96085.16
2019-01-17T22:08:22.854Z,96088.22
2019-01-17T22:10:54.826Z,96094.21
2019-01-17T22:13:26.679Z,96088.34
2019-01-17T22:15:58.868Z,96104.25
2019-01-17T22:18:30.719Z,96103.03
2019-01-17T22:21:02.485Z,96108.13
2019-01-17T22:23:35.520Z,96114.25
2019-01-17T22:26:07.438Z,96123.75
2019-01-17T22:28:39.259Z,96130.84
2019-01-17T22:31:11.038Z,96124.34
2019-01-17T22:33:42.857Z,96125.75
2019-01-17T22:36:15.725Z,96125.91
2019-01-17T22:38:47.570Z,96126.73
2019-01-17T22:41:19.488Z,96126.98
2019-01-17T22:43:51.595Z,96133.80
2019-01-17T22:46:23.356Z,96142.39
2019-01-17T22:48:55.200Z,96138.97
2019-01-17T22:51:27.026Z,96143.36
2019-01-17T22:53:59.100Z,96150.06
2019-01-17T22:56:31.364Z,96154.30
2019-01-17T22:59:09.104Z,96165.03
2019-01-17T23:01:36.937Z,96162.55
2019-01-17T23:04:08.993Z,96162.77
2019-01-17T23:06:40.850Z,96165.60
2019-01-17T23:09:12.677Z,96165.45
2019-01-17T23:11:44.522Z,96168.19
2019-01-17T23:14:16.500Z,96168.50
2019-01-17T23:16:48.492Z,96171.92
2019-01-17T23:19:20.266Z,96172.86
2019-01-17T23:21:52.446Z,96176.05
2019-01-17T23:24:24.271Z,96184.86
2019-01-17T23:26:56.128Z,96177.81
2019-01-17T23:29:28.170Z,96179.34
2019-01-17T23:31:59.941Z,96183.00
2019-01-17T23:34:32.133Z,96183.67
2019-01-17T23:37:04.138Z,96182.84
2019-01-17T23:39:35.894Z,96182.83
2019-01-17T23:42:07.819Z,96195.09
2019-01-17T23:44:39.650Z,96189.92
2019-01-17T23:47:11.641Z,96205.66
2019-01-17T23:49:43.769Z,96202.70
2019-01-17T23:52:15.633Z,96198.81
2019-01-17T23:54:47.667Z,96205.45
2019-01-17T23:57:19.516Z,96204.15
2019-01-17T23:59:51.321Z,96218.43
